EDT,Max TemperatureF,Mean TemperatureF,Min TemperatureF,Max Dew PointF,MeanDew PointF,Min DewpointF,Max Humidity, Mean Humidity, Min Humidity, Max Sea Level PressureIn, Mean Sea Level PressureIn, Min Sea Level PressureIn, Max VisibilityMiles, Mean VisibilityMiles, Min VisibilityMiles, Max Wind SpeedMPH, Mean Wind SpeedMPH, Max Gust SpeedMPH,PrecipitationIn, CloudCover, Events, WindDirDegrees
2013-6-1,91,80,69,68,66,62,87,61,42,30.01,29.95,29.88,10,10,10,14,6,22,0.00,0,,192
2013-6-2,90,80,72,70,67,64,84,67,45,29.89,29.82,29.75,10,10,6,18,10,25,0.08,2,Rain-Thunderstorm,204
2013-6-3,82,74,66,70,65,48,94,80,47,29.88,29.82,29.79,10,8,1,10,6,,0.28,7,Rain,253
2013-6-4,75,64,55,45,42,38,57,43,30,30.10,30.00,29.91,10,10,10,14,10,21,0.00,1,,325
2013-6-5,78,64,53,54,44,37,78,48,33,30.20,30.15,30.11,10,10,10,10,5,21,0.00,0,,149
2013-6-6,73,63,55,59,54,45,94,72,39,30.14,30.09,30.02,10,10,7,17,5,23,0.11,4,Rain,132
2013-6-7,63,61,60,61,60,57,100,96,82,29.99,29.82,29.63,10,4,1,10,6,18,3.18,8,Rain-Thunderstorm,56
2013-6-8,78,67,57,62,59,55,100,80,58,30.04,29.80,29.58,10,8,2,13,8,21,0.19,6,Rain,314
2013-6-9,81,70,60,61,58,55,93,66,45,30.16,30.12,30.06,10,10,10,10,2,16,0.00,1,,254
2013-6-10,71,66,62,66,63,61,100,89,73,30.15,30.02,29.81,10,4,1,15,5,25,1.48,8,Rain,98
2013-6-11,80,72,64,68,64,58,100,81,54,29.79,29.70,29.60,10,8,3,20,5,28,0.10,6,Rain,261
2013-6-12,75,70,64,58,54,51,73,57,44,29.84,29.78,29.71,10,10,10,22,10,32,0.00,1,,312
2013-6-13,66,60,57,61,58,54,100,86,70,29.83,29.61,29.47,10,7,1,14,5,24,1.24,7,Rain-Thunderstorm,66
2013-6-14,73,62,53,56,52,50,100,80,51,29.88,29.69,29.55,10,8,2,13,9,25,0.34,6,Rain,350
2013-6-15,81,70,59,57,53,48,87,57,35,30.00,29.94,29.88,10,10,10,13,4,25,0.00,1,,302
2013-6-16,82,70,59,64,58,51,87,62,36,29.98,29.87,29.76,10,10,10,18,5,26,0.00,2,,231
2013-6-17,87,75,66,66,63,59,93,67,43,29.90,29.86,29.82,10,10,8,15,6,23,0.00,1,,211
2013-6-18,86,73,64,68,64,61,94,79,52,29.89,29.86,29.81,10,8,0,12,4,18,0.50,4,Fog-Rain-Thunderstorm,25
2013-6-19,77,67,59,63,53,43,100,67,31,30.15,29.99,29.88,10,9,3,12,7,,0.02,3,Rain,9
2013-6-20,82,68,57,56,54,51,87,59,44,30.26,30.22,30.17,10,10,10,14,4,20,0.00,1,,183
2013-6-21,86,72,61,58,54,48,67,53,39,30.30,30.26,30.22,10,10,10,13,7,23,0.00,0,,194
2013-6-22,84,72,61,61,56,50,75,57,42,30.25,30.20,30.12,10,10,10,15,6,21,0.00,0,Rain,178
2013-6-23,91,76,66,71,66,59,84,69,49,30.18,30.12,30.05,10,10,10,15,6,23,0.00,2,Rain,191
2013-6-24,96,82,72,71,68,61,93,66,34,30.06,30.01,29.94,10,10,10,14,5,22,0.00,0,Rain,231
2013-6-25,93,81,71,69,67,64,81,63,44,29.98,29.89,29.80,10,10,10,23,5,29,0.00,1,Rain,233
2013-6-26,87,80,73,71,66,64,85,64,49,29.84,29.80,29.77,10,10,8,10,5,,0.00,1,,262
2013-6-27,90,79,72,74,70,67,94,77,53,29.80,29.68,29.55,10,8,1,17,6,25,0.54,5,Rain-Thunderstorm,126
2013-6-28,88,80,73,72,68,63,94,72,45,29.55,29.51,29.46,10,10,10,18,11,24,0.01,4,,212
2013-6-29,89,76,69,71,67,65,90,74,54,29.69,29.58,29.48,10,10,4,12,5,18,0.00,3,Rain,195
2013-6-30,87,79,72,73,71,70,93,81,61,29.90,29.81,29.70,10,8,5,13,5,18,0.00,3,Rain,161